sensor_id;sensor_type;location;lat;lon;timestamp;P1;durP1;ratioP1;P2;durP2;ratioP2
19814;SDS011;10067;53.092;8.800;2023-07-20T00:01:09;3.03;;;2.47;;
19814;SDS011;10067;53.092;8.800;2023-07-20T00:03:35;4.45;;;2.70;;
19814;SDS011;10067;53.092;8.800;2023-07-20T00:06:02;4.43;;;2.45;;
19814;SDS011;10067;53.092;8.800;2023-07-20T00:08:30;2.55;;;1.83;;
19814;SDS011;10067;53.092;8.800;2023-07-20T00:10:57;2.88;;;1.88;;
19814;SDS011;10067;53.092;8.800;2023-07-20T00:13:23;4.15;;;2.08;;
19814;SDS011;10067;53.092;8.800;2023-07-20T00:15:50;2.50;;;1.90;;
19814;SDS011;10067;53.092;8.800;2023-07-20T00:18:17;2.15;;;1.95;;
19814;SDS011;10067;53.092;8.800;2023-07-20T00:20:46;1.85;;;1.70;;
19814;SDS011;10067;53.092;8.800;2023-07-20T00:23:12;4.63;;;2.08;;
19814;SDS011;10067;53.092;8.800;2023-07-20T00:25:40;2.80;;;2.17;;
19814;SDS011;10067;53.092;8.800;2023-07-20T00:28:06;2.50;;;1.80;;
19814;SDS011;10067;53.092;8.800;2023-07-20T00:30:33;2.38;;;1.90;;
19814;SDS011;10067;53.092;8.800;2023-07-20T00:32:59;3.28;;;1.80;;
19814;SDS011;10067;53.092;8.800;2023-07-20T00:35:25;1.90;;;1.52;;
19814;SDS011;10067;53.092;8.800;2023-07-20T00:37:52;1.85;;;1.48;;
19814;SDS011;10067;53.092;8.800;2023-07-20T00:40:18;2.03;;;1.83;;
19814;SDS011;10067;53.092;8.800;2023-07-20T00:42:46;3.95;;;2.55;;
19814;SDS011;10067;53.092;8.800;2023-07-20T00:45:12;6.85;;;3.92;;
19814;SDS011;10067;53.092;8.800;2023-07-20T00:47:39;7.22;;;3.90;;
19814;SDS011;10067;53.092;8.800;2023-07-20T00:50:05;5.22;;;4.00;;
19814;SDS011;10067;53.092;8.800;2023-07-20T00:52:32;5.30;;;4.32;;
19814;SDS011;10067;53.092;8.800;2023-07-20T00:54:59;9.73;;;5.10;;
19814;SDS011;10067;53.092;8.800;2023-07-20T00:57:25;6.72;;;4.47;;
19814;SDS011;10067;53.092;8.800;2023-07-20T00:59:54;10.65;;;5.35;;
19814;SDS011;10067;53.092;8.800;2023-07-20T01:02:20;12.55;;;6.75;;
19814;SDS011;10067;53.092;8.800;2023-07-20T01:04:46;14.57;;;7.38;;
19814;SDS011;10067;53.092;8.800;2023-07-20T01:07:14;15.60;;;9.57;;
19814;SDS011;10067;53.092;8.800;2023-07-20T01:09:42;9.18;;;6.93;;
19814;SDS011;10067;53.092;8.800;2023-07-20T01:12:13;8.38;;;6.00;;
19814;SDS011;10067;53.092;8.800;2023-07-20T01:14:40;9.40;;;4.45;;
19814;SDS011;10067;53.092;8.800;2023-07-20T01:17:07;6.50;;;4.35;;
19814;SDS011;10067;53.092;8.800;2023-07-20T01:19:34;5.68;;;3.53;;
19814;SDS011;10067;53.092;8.800;2023-07-20T01:22:02;3.80;;;3.00;;
19814;SDS011;10067;53.092;8.800;2023-07-20T01:27:22;3.78;;;3.05;;
19814;SDS011;10067;53.092;8.800;2023-07-20T01:29:55;2.75;;;2.55;;
19814;SDS011;10067;53.092;8.800;2023-07-20T01:32:30;4.10;;;3.00;;
19814;SDS011;10067;53.092;8.800;2023-07-20T01:34:57;3.72;;;3.05;;
19814;SDS011;10067;53.092;8.800;2023-07-20T01:37:24;4.28;;;2.80;;
19814;SDS011;10067;53.092;8.800;2023-07-20T01:39:53;2.67;;;2.33;;
19814;SDS011;10067;53.092;8.800;2023-07-20T01:42:20;4.13;;;3.13;;
19814;SDS011;10067;53.092;8.800;2023-07-20T01:44:47;3.40;;;3.10;;
19814;SDS011;10067;53.092;8.800;2023-07-20T01:47:13;3.45;;;3.15;;
19814;SDS011;10067;53.092;8.800;2023-07-20T01:49:41;3.70;;;3.30;;
19814;SDS011;10067;53.092;8.800;2023-07-20T01:52:08;3.72;;;3.40;;
19814;SDS011;10067;53.092;8.800;2023-07-20T01:54:34;3.50;;;2.90;;
19814;SDS011;10067;53.092;8.800;2023-07-20T01:57:01;2.80;;;2.55;;
19814;SDS011;10067;53.092;8.800;2023-07-20T01:59:27;3.42;;;2.45;;
19814;SDS011;10067;53.092;8.800;2023-07-20T02:01:54;6.80;;;2.50;;
19814;SDS011;10067;53.092;8.800;2023-07-20T02:04:20;3.05;;;2.67;;
19814;SDS011;10067;53.092;8.800;2023-07-20T02:06:48;3.17;;;2.85;;
19814;SDS011;10067;53.092;8.800;2023-07-20T02:09:14;3.80;;;3.38;;
19814;SDS011;10067;53.092;8.800;2023-07-20T02:11:41;5.88;;;3.60;;
19814;SDS011;10067;53.092;8.800;2023-07-20T02:14:07;4.70;;;4.18;;
19814;SDS011;10067;53.092;8.800;2023-07-20T02:16:33;5.82;;;3.85;;
19814;SDS011;10067;53.092;8.800;2023-07-20T02:19:00;4.53;;;3.00;;
19814;SDS011;10067;53.092;8.800;2023-07-20T02:21:26;4.00;;;2.30;;
19814;SDS011;10067;53.092;8.800;2023-07-20T02:23:54;1.98;;;1.63;;
19814;SDS011;10067;53.092;8.800;2023-07-20T02:26:20;2.97;;;1.63;;
19814;SDS011;10067;53.092;8.800;2023-07-20T02:28:46;3.58;;;1.40;;
19814;SDS011;10067;53.092;8.800;2023-07-20T02:31:13;1.23;;;1.13;;
19814;SDS011;10067;53.092;8.800;2023-07-20T02:33:39;1.30;;;1.20;;
19814;SDS011;10067;53.092;8.800;2023-07-20T02:36:05;2.72;;;1.30;;
19814;SDS011;10067;53.092;8.800;2023-07-20T02:38:32;2.08;;;1.27;;
19814;SDS011;10067;53.092;8.800;2023-07-20T02:40:59;4.15;;;1.42;;
19814;SDS011;10067;53.092;8.800;2023-07-20T02:43:26;5.13;;;1.90;;
19814;SDS011;10067;53.092;8.800;2023-07-20T02:45:52;2.10;;;1.50;;
19814;SDS011;10067;53.092;8.800;2023-07-20T02:48:19;2.20;;;1.60;;
19814;SDS011;10067;53.092;8.800;2023-07-20T02:50:45;3.30;;;1.70;;
19814;SDS011;10067;53.092;8.800;2023-07-20T02:53:11;4.53;;;2.13;;
19814;SDS011;10067;53.092;8.800;2023-07-20T02:55:38;3.70;;;2.63;;
19814;SDS011;10067;53.092;8.800;2023-07-20T02:58:05;4.30;;;2.72;;
19814;SDS011;10067;53.092;8.800;2023-07-20T03:00:32;4.55;;;2.22;;
19814;SDS011;10067;53.092;8.800;2023-07-20T03:02:59;2.88;;;2.65;;
19814;SDS011;10067;53.092;8.800;2023-07-20T03:05:25;2.83;;;2.38;;
19814;SDS011;10067;53.092;8.800;2023-07-20T03:07:53;3.65;;;2.30;;
19814;SDS011;10067;53.092;8.800;2023-07-20T03:10:19;2.28;;;2.10;;
19814;SDS011;10067;53.092;8.800;2023-07-20T03:12:45;3.60;;;2.50;;
19814;SDS011;10067;53.092;8.800;2023-07-20T03:15:13;4.65;;;2.42;;
19814;SDS011;10067;53.092;8.800;2023-07-20T03:17:39;2.60;;;2.38;;
19814;SDS011;10067;53.092;8.800;2023-07-20T03:20:06;3.72;;;2.60;;
19814;SDS011;10067;53.092;8.800;2023-07-20T03:22:35;5.35;;;3.15;;
19814;SDS011;10067;53.092;8.800;2023-07-20T03:25:01;7.10;;;4.25;;
19814;SDS011;10067;53.092;8.800;2023-07-20T03:27:28;9.07;;;4.55;;
19814;SDS011;10067;53.092;8.800;2023-07-20T03:29:54;5.80;;;4.43;;
19814;SDS011;10067;53.092;8.800;2023-07-20T03:32:22;6.22;;;5.03;;
19814;SDS011;10067;53.092;8.800;2023-07-20T03:34:48;6.00;;;5.07;;
19814;SDS011;10067;53.092;8.800;2023-07-20T03:37:15;6.18;;;5.22;;
19814;SDS011;10067;53.092;8.800;2023-07-20T03:39:41;7.50;;;5.65;;
19814;SDS011;10067;53.092;8.800;2023-07-20T03:42:07;7.15;;;5.40;;
19814;SDS011;10067;53.092;8.800;2023-07-20T03:44:34;7.13;;;5.00;;
19814;SDS011;10067;53.092;8.800;2023-07-20T03:47:00;4.85;;;4.45;;
19814;SDS011;10067;53.092;8.800;2023-07-20T03:49:29;7.68;;;4.82;;
19814;SDS011;10067;53.092;8.800;2023-07-20T03:51:56;7.00;;;4.60;;
19814;SDS011;10067;53.092;8.800;2023-07-20T03:54:22;9.70;;;4.60;;
19814;SDS011;10067;53.092;8.800;2023-07-20T03:56:48;4.97;;;4.47;;
19814;SDS011;10067;53.092;8.800;2023-07-20T03:59:15;5.53;;;4.30;;
19814;SDS011;10067;53.092;8.800;2023-07-20T04:01:41;7.15;;;4.53;;
19814;SDS011;10067;53.092;8.800;2023-07-20T04:04:07;8.93;;;4.55;;
19814;SDS011;10067;53.092;8.800;2023-07-20T04:06:35;5.68;;;4.20;;
19814;SDS011;10067;53.092;8.800;2023-07-20T04:09:02;7.57;;;4.90;;
19814;SDS011;10067;53.092;8.800;2023-07-20T04:11:29;7.90;;;6.05;;
19814;SDS011;10067;53.092;8.800;2023-07-20T04:13:56;5.57;;;4.85;;
19814;SDS011;10067;53.092;8.800;2023-07-20T04:16:22;5.55;;;4.95;;
19814;SDS011;10067;53.092;8.800;2023-07-20T04:18:48;6.82;;;5.35;;
19814;SDS011;10067;53.092;8.800;2023-07-20T04:21:15;10.05;;;5.43;;
19814;SDS011;10067;53.092;8.800;2023-07-20T04:23:43;6.30;;;4.55;;
19814;SDS011;10067;53.092;8.800;2023-07-20T04:26:10;13.85;;;6.07;;
19814;SDS011;10067;53.092;8.800;2023-07-20T04:28:37;7.68;;;5.20;;
19814;SDS011;10067;53.092;8.800;2023-07-20T04:31:11;8.63;;;7.57;;
19814;SDS011;10067;53.092;8.800;2023-07-20T04:33:37;7.53;;;5.68;;
19814;SDS011;10067;53.092;8.800;2023-07-20T04:36:04;12.50;;;5.65;;
19814;SDS011;10067;53.092;8.800;2023-07-20T04:38:30;8.43;;;6.57;;
19814;SDS011;10067;53.092;8.800;2023-07-20T04:40:58;7.53;;;5.53;;
19814;SDS011;10067;53.092;8.800;2023-07-20T04:43:24;9.52;;;5.60;;
19814;SDS011;10067;53.092;8.800;2023-07-20T04:45:51;9.27;;;5.18;;
19814;SDS011;10067;53.092;8.800;2023-07-20T04:48:17;13.15;;;7.00;;
19814;SDS011;10067;53.092;8.800;2023-07-20T04:50:44;14.13;;;8.80;;
19814;SDS011;10067;53.092;8.800;2023-07-20T04:53:11;10.18;;;6.55;;
19814;SDS011;10067;53.092;8.800;2023-07-20T04:55:37;8.75;;;5.60;;
19814;SDS011;10067;53.092;8.800;2023-07-20T04:58:05;9.23;;;5.18;;
19814;SDS011;10067;53.092;8.800;2023-07-20T05:00:32;6.90;;;4.85;;
19814;SDS011;10067;53.092;8.800;2023-07-20T05:02:59;8.35;;;5.00;;
19814;SDS011;10067;53.092;8.800;2023-07-20T05:05:25;6.32;;;4.93;;
19814;SDS011;10067;53.092;8.800;2023-07-20T05:07:51;5.10;;;4.55;;
19814;SDS011;10067;53.092;8.800;2023-07-20T05:10:18;7.82;;;5.43;;
19814;SDS011;10067;53.092;8.800;2023-07-20T05:12:44;6.55;;;4.90;;
19814;SDS011;10067;53.092;8.800;2023-07-20T05:15:12;5.65;;;4.18;;
19814;SDS011;10067;53.092;8.800;2023-07-20T05:17:38;4.75;;;4.22;;
19814;SDS011;10067;53.092;8.800;2023-07-20T05:20:05;8.88;;;5.90;;
19814;SDS011;10067;53.092;8.800;2023-07-20T05:22:32;8.82;;;5.32;;
19814;SDS011;10067;53.092;8.800;2023-07-20T05:24:58;8.20;;;6.40;;
19814;SDS011;10067;53.092;8.800;2023-07-20T05:27:25;8.07;;;5.28;;
19814;SDS011;10067;53.092;8.800;2023-07-20T05:29:51;6.38;;;5.03;;
19814;SDS011;10067;53.092;8.800;2023-07-20T05:32:19;8.27;;;4.97;;
19814;SDS011;10067;53.092;8.800;2023-07-20T05:34:45;5.30;;;3.95;;
19814;SDS011;10067;53.092;8.800;2023-07-20T05:37:11;7.88;;;4.07;;
19814;SDS011;10067;53.092;8.800;2023-07-20T05:39:38;5.80;;;3.83;;
19814;SDS011;10067;53.092;8.800;2023-07-20T05:42:05;5.55;;;3.47;;
19814;SDS011;10067;53.092;8.800;2023-07-20T05:44:31;5.30;;;4.05;;
19814;SDS011;10067;53.092;8.800;2023-07-20T05:46:57;11.23;;;5.95;;
19814;SDS011;10067;53.092;8.800;2023-07-20T05:49:25;8.13;;;4.40;;
19814;SDS011;10067;53.092;8.800;2023-07-20T05:51:51;8.77;;;5.47;;
19814;SDS011;10067;53.092;8.800;2023-07-20T05:54:18;10.95;;;4.85;;
19814;SDS011;10067;53.092;8.800;2023-07-20T05:56:45;8.85;;;4.90;;
19814;SDS011;10067;53.092;8.800;2023-07-20T05:59:11;7.53;;;5.22;;
19814;SDS011;10067;53.092;8.800;2023-07-20T06:01:37;9.88;;;4.97;;
19814;SDS011;10067;53.092;8.800;2023-07-20T06:04:04;10.82;;;6.50;;
19814;SDS011;10067;53.092;8.800;2023-07-20T06:06:31;26.45;;;11.50;;
19814;SDS011;10067;53.092;8.800;2023-07-20T06:08:58;22.33;;;11.48;;
19814;SDS011;10067;53.092;8.800;2023-07-20T06:11:27;13.50;;;7.25;;
19814;SDS011;10067;53.092;8.800;2023-07-20T06:13:54;10.88;;;5.15;;
19814;SDS011;10067;53.092;8.800;2023-07-20T06:16:20;8.73;;;3.90;;
19814;SDS011;10067;53.092;8.800;2023-07-20T06:18:46;9.90;;;4.72;;
19814;SDS011;10067;53.092;8.800;2023-07-20T06:21:13;6.22;;;4.30;;
19814;SDS011;10067;53.092;8.800;2023-07-20T06:23:41;8.88;;;4.43;;
19814;SDS011;10067;53.092;8.800;2023-07-20T06:26:07;8.93;;;4.32;;
19814;SDS011;10067;53.092;8.800;2023-07-20T06:28:33;10.27;;;3.35;;
19814;SDS011;10067;53.092;8.800;2023-07-20T06:31:00;11.02;;;4.28;;
19814;SDS011;10067;53.092;8.800;2023-07-20T06:33:26;11.73;;;7.97;;
19814;SDS011;10067;53.092;8.800;2023-07-20T06:35:53;23.55;;;14.13;;
19814;SDS011;10067;53.092;8.800;2023-07-20T06:38:19;19.85;;;12.43;;
19814;SDS011;10067;53.092;8.800;2023-07-20T06:40:49;7.28;;;3.63;;
19814;SDS011;10067;53.092;8.800;2023-07-20T06:43:15;7.55;;;3.83;;
19814;SDS011;10067;53.092;8.800;2023-07-20T06:45:42;7.93;;;3.72;;
19814;SDS011;10067;53.092;8.800;2023-07-20T06:48:08;6.95;;;3.38;;
19814;SDS011;10067;53.092;8.800;2023-07-20T06:50:35;9.23;;;4.90;;
19814;SDS011;10067;53.092;8.800;2023-07-20T06:53:01;12.80;;;5.22;;
19814;SDS011;10067;53.092;8.800;2023-07-20T06:55:29;11.57;;;3.90;;
19814;SDS011;10067;53.092;8.800;2023-07-20T06:57:56;9.38;;;3.28;;
19814;SDS011;10067;53.092;8.800;2023-07-20T07:00:25;6.10;;;2.92;;
19814;SDS011;10067;53.092;8.800;2023-07-20T07:02:54;19.77;;;11.70;;
19814;SDS011;10067;53.092;8.800;2023-07-20T07:05:20;5.00;;;3.78;;
19814;SDS011;10067;53.092;8.800;2023-07-20T07:07:47;7.25;;;3.33;;
19814;SDS011;10067;53.092;8.800;2023-07-20T07:10:13;7.00;;;3.40;;
19814;SDS011;10067;53.092;8.800;2023-07-20T07:12:40;8.55;;;5.43;;
19814;SDS011;10067;53.092;8.800;2023-07-20T07:15:08;19.67;;;9.82;;
19814;SDS011;10067;53.092;8.800;2023-07-20T07:17:35;9.68;;;4.07;;
19814;SDS011;10067;53.092;8.800;2023-07-20T07:20:02;3.90;;;2.50;;
19814;SDS011;10067;53.092;8.800;2023-07-20T07:22:29;7.50;;;2.05;;
19814;SDS011;10067;53.092;8.800;2023-07-20T07:24:55;7.10;;;2.35;;
19814;SDS011;10067;53.092;8.800;2023-07-20T07:27:22;4.65;;;2.00;;
19814;SDS011;10067;53.092;8.800;2023-07-20T07:29:48;6.97;;;2.47;;
19814;SDS011;10067;53.092;8.800;2023-07-20T07:32:16;4.57;;;2.13;;
19814;SDS011;10067;53.092;8.800;2023-07-20T07:34:43;7.50;;;2.85;;
19814;SDS011;10067;53.092;8.800;2023-07-20T07:37:11;6.65;;;2.45;;
19814;SDS011;10067;53.092;8.800;2023-07-20T07:39:37;8.77;;;2.15;;
19814;SDS011;10067;53.092;8.800;2023-07-20T07:42:04;10.32;;;1.92;;
19814;SDS011;10067;53.092;8.800;2023-07-20T07:44:31;5.93;;;1.80;;
19814;SDS011;10067;53.092;8.800;2023-07-20T07:46:57;6.57;;;2.20;;
19814;SDS011;10067;53.092;8.800;2023-07-20T07:49:25;5.63;;;1.70;;
19814;SDS011;10067;53.092;8.800;2023-07-20T07:51:51;3.45;;;1.70;;
19814;SDS011;10067;53.092;8.800;2023-07-20T07:54:17;2.78;;;1.90;;
19814;SDS011;10067;53.092;8.800;2023-07-20T07:56:44;5.15;;;1.90;;
19814;SDS011;10067;53.092;8.800;2023-07-20T07:59:10;7.82;;;2.38;;
19814;SDS011;10067;53.092;8.800;2023-07-20T08:01:36;4.10;;;2.20;;
19814;SDS011;10067;53.092;8.800;2023-07-20T08:04:03;4.95;;;1.80;;
19814;SDS011;10067;53.092;8.800;2023-07-20T08:06:31;6.18;;;1.85;;
19814;SDS011;10067;53.092;8.800;2023-07-20T08:08:57;6.45;;;1.98;;
19814;SDS011;10067;53.092;8.800;2023-07-20T08:11:24;7.13;;;2.00;;
19814;SDS011;10067;53.092;8.800;2023-07-20T08:13:50;5.28;;;2.00;;
19814;SDS011;10067;53.092;8.800;2023-07-20T08:16:16;5.68;;;1.85;;
19814;SDS011;10067;53.092;8.800;2023-07-20T08:18:43;3.85;;;1.50;;
19814;SDS011;10067;53.092;8.800;2023-07-20T08:21:10;6.90;;;1.92;;
19814;SDS011;10067;53.092;8.800;2023-07-20T08:23:38;5.72;;;2.20;;
19814;SDS011;10067;53.092;8.800;2023-07-20T08:26:04;5.03;;;2.00;;
19814;SDS011;10067;53.092;8.800;2023-07-20T08:28:31;7.00;;;2.53;;
19814;SDS011;10067;53.092;8.800;2023-07-20T08:30:57;5.78;;;2.30;;
19814;SDS011;10067;53.092;8.800;2023-07-20T08:33:23;8.48;;;2.30;;
19814;SDS011;10067;53.092;8.800;2023-07-20T08:35:50;6.13;;;2.17;;
19814;SDS011;10067;53.092;8.800;2023-07-20T08:38:16;8.15;;;2.60;;
19814;SDS011;10067;53.092;8.800;2023-07-20T08:40:44;6.72;;;2.28;;
19814;SDS011;10067;53.092;8.800;2023-07-20T08:43:11;10.80;;;2.60;;
19814;SDS011;10067;53.092;8.800;2023-07-20T08:45:38;5.78;;;1.70;;
19814;SDS011;10067;53.092;8.800;2023-07-20T08:48:05;2.90;;;1.75;;
19814;SDS011;10067;53.092;8.800;2023-07-20T08:50:32;2.83;;;1.75;;
19814;SDS011;10067;53.092;8.800;2023-07-20T08:52:59;4.15;;;1.77;;
19814;SDS011;10067;53.092;8.800;2023-07-20T08:55:26;4.90;;;1.95;;
19814;SDS011;10067;53.092;8.800;2023-07-20T08:57:54;8.18;;;4.45;;
19814;SDS011;10067;53.092;8.800;2023-07-20T09:00:21;19.85;;;10.60;;
19814;SDS011;10067;53.092;8.800;2023-07-20T09:02:49;45.00;;;22.70;;
19814;SDS011;10067;53.092;8.800;2023-07-20T09:05:16;14.77;;;7.13;;
19814;SDS011;10067;53.092;8.800;2023-07-20T09:07:43;8.38;;;3.63;;
19814;SDS011;10067;53.092;8.800;2023-07-20T09:10:09;5.43;;;2.60;;
19814;SDS011;10067;53.092;8.800;2023-07-20T09:12:37;6.95;;;3.20;;
19814;SDS011;10067;53.092;8.800;2023-07-20T09:15:05;6.28;;;2.33;;
19814;SDS011;10067;53.092;8.800;2023-07-20T09:17:32;5.28;;;2.10;;
19814;SDS011;10067;53.092;8.800;2023-07-20T09:19:58;3.95;;;2.00;;
19814;SDS011;10067;53.092;8.800;2023-07-20T09:22:29;3.58;;;1.70;;
19814;SDS011;10067;53.092;8.800;2023-07-20T09:24:55;4.93;;;2.20;;
19814;SDS011;10067;53.092;8.800;2023-07-20T09:27:22;2.17;;;1.70;;
19814;SDS011;10067;53.092;8.800;2023-07-20T09:29:48;5.93;;;1.80;;
19814;SDS011;10067;53.092;8.800;2023-07-20T09:32:19;2.40;;;1.58;;
19814;SDS011;10067;53.092;8.800;2023-07-20T09:34:46;2.63;;;1.38;;
19814;SDS011;10067;53.092;8.800;2023-07-20T09:37:12;3.20;;;1.50;;
19814;SDS011;10067;53.092;8.800;2023-07-20T09:39:42;4.82;;;2.00;;
19814;SDS011;10067;53.092;8.800;2023-07-20T09:42:10;9.00;;;2.40;;
19814;SDS011;10067;53.092;8.800;2023-07-20T09:44:36;7.47;;;2.08;;
19814;SDS011;10067;53.092;8.800;2023-07-20T09:47:04;7.13;;;3.25;;
19814;SDS011;10067;53.092;8.800;2023-07-20T09:49:32;7.97;;;2.33;;
19814;SDS011;10067;53.092;8.800;2023-07-20T09:51:58;5.35;;;1.92;;
19814;SDS011;10067;53.092;8.800;2023-07-20T09:54:27;6.80;;;2.63;;
19814;SDS011;10067;53.092;8.800;2023-07-20T09:56:54;2.05;;;1.50;;
19814;SDS011;10067;53.092;8.800;2023-07-20T09:59:21;2.80;;;1.50;;
19814;SDS011;10067;53.092;8.800;2023-07-20T10:01:48;3.25;;;1.88;;
19814;SDS011;10067;53.092;8.800;2023-07-20T10:04:15;5.40;;;1.40;;
19814;SDS011;10067;53.092;8.800;2023-07-20T10:06:44;4.85;;;1.65;;
19814;SDS011;10067;53.092;8.800;2023-07-20T10:09:12;7.75;;;1.92;;
19814;SDS011;10067;53.092;8.800;2023-07-20T10:11:41;6.63;;;1.90;;
19814;SDS011;10067;53.092;8.800;2023-07-20T10:14:09;4.35;;;2.10;;
19814;SDS011;10067;53.092;8.800;2023-07-20T10:16:39;5.07;;;2.22;;
19814;SDS011;10067;53.092;8.800;2023-07-20T10:19:05;3.38;;;1.83;;
19814;SDS011;10067;53.092;8.800;2023-07-20T10:21:33;7.22;;;2.42;;
19814;SDS011;10067;53.092;8.800;2023-07-20T10:24:03;7.63;;;3.10;;
19814;SDS011;10067;53.092;8.800;2023-07-20T10:26:30;7.30;;;2.90;;
19814;SDS011;10067;53.092;8.800;2023-07-20T10:28:56;4.55;;;2.33;;
19814;SDS011;10067;53.092;8.800;2023-07-20T10:31:23;4.10;;;2.50;;
19814;SDS011;10067;53.092;8.800;2023-07-20T10:33:50;8.18;;;2.72;;
19814;SDS011;10067;53.092;8.800;2023-07-20T10:36:20;4.43;;;2.05;;
19814;SDS011;10067;53.092;8.800;2023-07-20T10:38:59;6.55;;;1.77;;
19814;SDS011;10067;53.092;8.800;2023-07-20T10:41:32;3.17;;;1.98;;
19814;SDS011;10067;53.092;8.800;2023-07-20T10:44:00;3.13;;;1.60;;
19814;SDS011;10067;53.092;8.800;2023-07-20T10:46:34;2.40;;;1.63;;
19814;SDS011;10067;53.092;8.800;2023-07-20T10:49:01;2.25;;;1.60;;
19814;SDS011;10067;53.092;8.800;2023-07-20T10:51:30;3.20;;;1.60;;
19814;SDS011;10067;53.092;8.800;2023-07-20T10:54:07;6.35;;;1.55;;
19814;SDS011;10067;53.092;8.800;2023-07-20T10:56:34;2.42;;;1.40;;
19814;SDS011;10067;53.092;8.800;2023-07-20T10:59:01;5.45;;;1.98;;
19814;SDS011;10067;53.092;8.800;2023-07-20T11:01:43;6.35;;;4.13;;
19814;SDS011;10067;53.092;8.800;2023-07-20T11:04:10;7.32;;;3.95;;
19814;SDS011;10067;53.092;8.800;2023-07-20T11:06:36;6.22;;;2.80;;
19814;SDS011;10067;53.092;8.800;2023-07-20T11:09:04;5.07;;;2.13;;
19814;SDS011;10067;53.092;8.800;2023-07-20T11:11:30;6.20;;;3.63;;
19814;SDS011;10067;53.092;8.800;2023-07-20T11:13:58;4.72;;;2.83;;
19814;SDS011;10067;53.092;8.800;2023-07-20T11:16:35;4.53;;;1.90;;
19814;SDS011;10067;53.092;8.800;2023-07-20T11:19:02;3.63;;;1.73;;
19814;SDS011;10067;53.092;8.800;2023-07-20T11:21:29;6.60;;;2.38;;
19814;SDS011;10067;53.092;8.800;2023-07-20T11:23:55;5.65;;;3.22;;
19814;SDS011;10067;53.092;8.800;2023-07-20T11:26:22;5.72;;;3.20;;
19814;SDS011;10067;53.092;8.800;2023-07-20T11:28:48;13.02;;;5.43;;
19814;SDS011;10067;53.092;8.800;2023-07-20T11:31:18;7.13;;;3.63;;
19814;SDS011;10067;53.092;8.800;2023-07-20T11:33:44;3.25;;;1.58;;
19814;SDS011;10067;53.092;8.800;2023-07-20T11:36:11;5.13;;;2.70;;
19814;SDS011;10067;53.092;8.800;2023-07-20T11:38:38;4.72;;;2.13;;
19814;SDS011;10067;53.092;8.800;2023-07-20T11:41:05;6.20;;;2.67;;
19814;SDS011;10067;53.092;8.800;2023-07-20T11:43:31;5.35;;;1.60;;
19814;SDS011;10067;53.092;8.800;2023-07-20T11:45:58;4.32;;;1.90;;
19814;SDS011;10067;53.092;8.800;2023-07-20T11:48:27;4.50;;;2.10;;
19814;SDS011;10067;53.092;8.800;2023-07-20T11:50:53;6.85;;;2.22;;
19814;SDS011;10067;53.092;8.800;2023-07-20T11:53:20;4.65;;;2.83;;
19814;SDS011;10067;53.092;8.800;2023-07-20T11:55:46;7.68;;;3.13;;
19814;SDS011;10067;53.092;8.800;2023-07-20T11:58:13;6.13;;;2.17;;
19814;SDS011;10067;53.092;8.800;2023-07-20T12:00:41;6.10;;;1.83;;
19814;SDS011;10067;53.092;8.800;2023-07-20T12:03:10;3.28;;;1.35;;
19814;SDS011;10067;53.092;8.800;2023-07-20T12:05:38;4.30;;;1.50;;
19814;SDS011;10067;53.092;8.800;2023-07-20T12:08:04;7.63;;;1.35;;
19814;SDS011;10067;53.092;8.800;2023-07-20T12:10:31;4.93;;;1.85;;
19814;SDS011;10067;53.092;8.800;2023-07-20T12:13:01;2.95;;;1.38;;
19814;SDS011;10067;53.092;8.800;2023-07-20T12:15:28;3.17;;;1.42;;
19814;SDS011;10067;53.092;8.800;2023-07-20T12:17:56;5.35;;;1.75;;
19814;SDS011;10067;53.092;8.800;2023-07-20T12:20:26;5.85;;;1.50;;
19814;SDS011;10067;53.092;8.800;2023-07-20T12:22:55;6.45;;;1.50;;
19814;SDS011;10067;53.092;8.800;2023-07-20T12:25:22;2.38;;;1.15;;
19814;SDS011;10067;53.092;8.800;2023-07-20T12:27:48;4.90;;;2.17;;
19814;SDS011;10067;53.092;8.800;2023-07-20T12:30:14;3.63;;;1.80;;
19814;SDS011;10067;53.092;8.800;2023-07-20T12:32:41;2.30;;;1.50;;
19814;SDS011;10067;53.092;8.800;2023-07-20T12:35:08;3.05;;;1.83;;
19814;SDS011;10067;53.092;8.800;2023-07-20T12:37:36;5.00;;;1.50;;
19814;SDS011;10067;53.092;8.800;2023-07-20T12:40:05;13.88;;;8.75;;
19814;SDS011;10067;53.092;8.800;2023-07-20T12:42:36;10.43;;;4.88;;
19814;SDS011;10067;53.092;8.800;2023-07-20T12:45:02;3.33;;;1.50;;
19814;SDS011;10067;53.092;8.800;2023-07-20T12:47:29;9.48;;;2.00;;
19814;SDS011;10067;53.092;8.800;2023-07-20T12:49:55;3.97;;;1.90;;
19814;SDS011;10067;53.092;8.800;2023-07-20T12:52:21;8.25;;;1.95;;
19814;SDS011;10067;53.092;8.800;2023-07-20T12:54:48;3.95;;;1.58;;
19814;SDS011;10067;53.092;8.800;2023-07-20T12:57:16;1.88;;;1.38;;
19814;SDS011;10067;53.092;8.800;2023-07-20T12:59:42;5.85;;;1.70;;
19814;SDS011;10067;53.092;8.800;2023-07-20T13:02:11;2.97;;;1.15;;
19814;SDS011;10067;53.092;8.800;2023-07-20T13:04:38;2.25;;;0.98;;
19814;SDS011;10067;53.092;8.800;2023-07-20T13:07:04;2.80;;;1.23;;
19814;SDS011;10067;53.092;8.800;2023-07-20T13:09:31;3.70;;;1.30;;
19814;SDS011;10067;53.092;8.800;2023-07-20T13:11:57;1.67;;;1.10;;
19814;SDS011;10067;53.092;8.800;2023-07-20T13:14:25;4.78;;;1.92;;
19814;SDS011;10067;53.092;8.800;2023-07-20T13:16:51;2.40;;;1.15;;
19814;SDS011;10067;53.092;8.800;2023-07-20T13:19:17;3.55;;;1.38;;
19814;SDS011;10067;53.092;8.800;2023-07-20T13:21:44;3.03;;;1.25;;
19814;SDS011;10067;53.092;8.800;2023-07-20T13:24:10;13.32;;;9.48;;
19814;SDS011;10067;53.092;8.800;2023-07-20T13:26:37;6.38;;;3.05;;
19814;SDS011;10067;53.092;8.800;2023-07-20T13:29:03;4.13;;;1.60;;
19814;SDS011;10067;53.092;8.800;2023-07-20T13:31:32;3.97;;;1.33;;
19814;SDS011;10067;53.092;8.800;2023-07-20T13:33:58;3.85;;;1.40;;
19814;SDS011;10067;53.092;8.800;2023-07-20T13:36:27;5.22;;;1.40;;
19814;SDS011;10067;53.092;8.800;2023-07-20T13:38:53;4.60;;;1.25;;
19814;SDS011;10067;53.092;8.800;2023-07-20T13:41:20;3.15;;;1.20;;
19814;SDS011;10067;53.092;8.800;2023-07-20T13:43:48;4.18;;;1.50;;
19814;SDS011;10067;53.092;8.800;2023-07-20T13:46:15;3.00;;;1.40;;
19814;SDS011;10067;53.092;8.800;2023-07-20T13:48:46;4.07;;;1.17;;
19814;SDS011;10067;53.092;8.800;2023-07-20T13:51:12;4.15;;;1.15;;
19814;SDS011;10067;53.092;8.800;2023-07-20T13:53:47;4.35;;;1.00;;
19814;SDS011;10067;53.092;8.800;2023-07-20T13:56:14;2.88;;;1.15;;
19814;SDS011;10067;53.092;8.800;2023-07-20T13:58:42;2.33;;;1.08;;
19814;SDS011;10067;53.092;8.800;2023-07-20T14:01:09;3.25;;;1.10;;
19814;SDS011;10067;53.092;8.800;2023-07-20T14:03:35;3.55;;;1.48;;
19814;SDS011;10067;53.092;8.800;2023-07-20T14:06:04;3.20;;;1.05;;
19814;SDS011;10067;53.092;8.800;2023-07-20T14:08:31;3.72;;;1.23;;
19814;SDS011;10067;53.092;8.800;2023-07-20T14:10:58;4.13;;;1.38;;
19814;SDS011;10067;53.092;8.800;2023-07-20T14:13:24;3.22;;;1.15;;
19814;SDS011;10067;53.092;8.800;2023-07-20T14:15:51;3.28;;;1.40;;
19814;SDS011;10067;53.092;8.800;2023-07-20T14:18:17;4.15;;;1.67;;
19814;SDS011;10067;53.092;8.800;2023-07-20T14:20:47;5.72;;;1.38;;
19814;SDS011;10067;53.092;8.800;2023-07-20T14:23:16;2.60;;;1.10;;
19814;SDS011;10067;53.092;8.800;2023-07-20T14:25:43;5.93;;;1.40;;
19814;SDS011;10067;53.092;8.800;2023-07-20T14:28:10;5.88;;;1.70;;
19814;SDS011;10067;53.092;8.800;2023-07-20T14:30:37;3.63;;;2.20;;
19814;SDS011;10067;53.092;8.800;2023-07-20T14:33:04;3.45;;;1.60;;
19814;SDS011;10067;53.092;8.800;2023-07-20T14:35:33;6.40;;;1.75;;
19814;SDS011;10067;53.092;8.800;2023-07-20T14:38:00;3.03;;;1.45;;
19814;SDS011;10067;53.092;8.800;2023-07-20T14:40:28;4.45;;;1.23;;
19814;SDS011;10067;53.092;8.800;2023-07-20T14:42:55;6.43;;;1.20;;
19814;SDS011;10067;53.092;8.800;2023-07-20T14:45:21;1.77;;;1.20;;
19814;SDS011;10067;53.092;8.800;2023-07-20T14:47:48;4.35;;;1.40;;